createdAt,value
2018-01-08T00:06:08.183Z,27.7
2018-01-08T00:21:08.184Z,35.2
2018-01-08T00:41:08.216Z,35
2018-01-08T00:56:08.238Z,33.4
2018-01-08T01:11:08.208Z,34.7
2018-01-08T01:31:08.211Z,33.2
2018-01-08T01:46:08.254Z,27.9
2018-01-08T02:01:08.241Z,29.1
2018-01-08T02:16:08.257Z,32
2018-01-08T02:36:08.395Z,27.7
2018-01-08T02:51:08.297Z,31.1
2018-01-08T03:26:08.479Z,30.9
2018-01-08T03:41:08.509Z,30.3
2018-01-08T03:56:08.389Z,23.9
2018-01-08T04:11:08.492Z,28.6
2018-01-08T04:31:09.442Z,24.2
2018-01-08T04:46:09.624Z,22.8
2018-01-08T05:01:09.545Z,22.5
2018-01-08T05:21:09.793Z,28.1
2018-01-08T05:36:09.543Z,24.2
2018-01-08T05:51:09.558Z,29.1
2018-01-08T06:07:44.102Z,28.6
2018-01-08T06:26:09.566Z,26.1
2018-01-08T06:41:09.625Z,26.2
2018-01-08T06:56:09.526Z,25.2
2018-01-08T07:16:09.534Z,24.6
2018-01-08T07:31:09.645Z,18.7
2018-01-08T07:46:09.657Z,19.8
2018-01-08T08:01:09.553Z,20.5
2018-01-08T08:21:09.661Z,18.8
2018-01-08T08:36:09.670Z,18.8
2018-01-08T08:51:09.713Z,18.3
2018-01-08T09:11:09.584Z,17.5
2018-01-08T09:26:09.597Z,17
2018-01-08T09:41:09.644Z,17.3
2018-01-08T09:56:09.690Z,16.3
2018-01-08T10:16:19.884Z,14.8
2018-01-08T10:31:10.013Z,17.2
2018-01-08T10:46:09.766Z,16.5
2018-01-08T11:06:09.679Z,16.8
2018-01-08T11:21:09.760Z,15.9
2018-01-08T11:36:09.804Z,19.6
2018-01-08T11:51:09.685Z,18.2
2018-01-08T12:11:09.732Z,20.1
2018-01-08T12:26:09.765Z,18.9
2018-01-08T12:41:09.723Z,19.2
2018-01-08T13:01:09.792Z,18.9
2018-01-08T13:16:09.793Z,20
2018-01-08T13:51:09.930Z,21.6
2018-01-08T14:36:09.846Z,18.9
2018-01-08T14:56:11.179Z,16.1
2018-01-08T15:11:09.674Z,17
2018-01-08T15:26:10.899Z,15.3
2018-01-08T15:46:09.704Z,14.1
2018-01-08T16:01:09.831Z,15.2
2018-01-08T16:16:10.135Z,12.6
2018-01-08T16:31:09.684Z,13.3
2018-01-08T16:51:09.744Z,12.1
2018-01-08T17:06:09.734Z,10.5
2018-01-08T17:21:10.328Z,11.3
2018-01-08T17:56:11.568Z,14.4
2018-01-08T18:11:09.890Z,14.7
2018-01-08T18:26:09.865Z,14.4
2018-01-08T18:46:10.049Z,23.3
2018-01-08T19:01:09.874Z,15.1
2018-01-08T19:16:10.888Z,12.7
2018-01-08T19:36:13.291Z,12.7
2018-01-08T19:51:13.458Z,12.9
2018-01-08T20:06:13.805Z,13.1
2018-01-08T20:21:13.524Z,14.5
2018-01-08T20:41:13.565Z,12.1
2018-01-08T20:56:14.660Z,13
2018-01-08T21:31:14.456Z,13.3
2018-01-08T21:46:16.962Z,10.3
2018-01-08T22:01:14.641Z,9.8
2018-01-08T22:16:13.766Z,8.5
2018-01-08T22:36:13.630Z,10.7
2018-01-08T22:51:13.720Z,12.6
2018-01-08T23:06:13.761Z,14.6
2018-01-08T23:26:13.598Z,16.4
2018-01-08T23:41:13.811Z,15.5
2018-01-08T23:56:13.566Z,15
